Flight Track Log - Related Links

Times and Time Zones

All times are in EDT time to prevent confusion due to time zone crossing. See the SWA3587 flight status page for this flight to view local times or setup timezone preferences in your user account.

Time Position Orientation Groundspeed Altitude Reporting Facility
EDT Latitude Longitude Course Direction KTS MPH feet Rate Location/Type
Sun 08:50:17 PM 33.4333 -112.0667 69° East 176 203 3,000  Level Phoenix TRACON
Sun 08:51:18 PM 33.4333 -112.1333 270° West 214 246 5,600 2,835 Climbing Phoenix TRACON
Sun 08:52:24 PM 33.4667 -112.1833 309° West 228 262 9,000 3,000 Climbing Phoenix TRACON
Sun 08:53:24 PM 33.5500 -112.1667 North 272 313 11,900 2,681 Climbing Phoenix TRACON
Sun 08:54:45 PM 33.6339 -112.1144 27° Northeast 311 358 15,300 2,366 Climbing Albuquerque Center
Sun 08:55:00 PM 33.6831 -111.2674 69° East  Level FlightAware Approximate
Sun 08:55:46 PM 33.7186 -112.0553 30° Northeast 355 409 17,500  Level Albuquerque Center
Sun 08:56:48 PM 33.8272 -111.9778 31° Northeast 390 449 20,800 2,878 Climbing Albuquerque Center
Sun 08:57:49 PM 33.9397 -111.9169 24° Northeast 415 478 23,400 2,390 Climbing Albuquerque Center
Sun 08:58:51 PM 34.0542 -111.8736 17° North 430 495 25,700 2,146 Climbing Albuquerque Center
Sun 08:59:52 PM 34.1764 -111.8553 North 441 507 27,800 1,610 Climbing Albuquerque Center
Sun 09:00:54 PM 34.3075 -111.8328 North 455 524 29,000 585 Climbing Albuquerque Center
Sun 09:01:55 PM 34.4353 -111.8089 North 461 531 29,000 738 Level Albuquerque Center
Sun 09:02:56 PM 34.5614 -111.7850 North 460 529 30,500 1,512 Climbing Albuquerque Center
Sun 09:03:58 PM 34.6911 -111.7614 North 466 536 32,100 1,707 Climbing Albuquerque Center
Sun 09:04:59 PM 34.8311 -111.7344 North 471 542 34,000 927 Climbing Albuquerque Center
Sun 09:06:01 PM 34.9494 -111.7114 North 469 540 34,000  Level Albuquerque Center
Sun 09:07:02 PM 35.0781 -111.6883 North 467 537 34,000  Level Albuquerque Center
Sun 09:08:04 PM 35.2028 -111.6508 14° North 464 534 34,000 390 Level Albuquerque Center
Sun 09:09:05 PM 35.3319 -111.5978 19° North 468 539 34,800 492 Climbing Albuquerque Center
Sun 09:10:06 PM 35.4517 -111.5481 19° North 462 532 35,000 98 Climbing Albuquerque Center
Sun 09:11:08 PM 35.5964 -111.4872 19° North 461 531 35,000  Level Albuquerque Center
Sun 09:12:09 PM 35.7261 -111.4344 18° North 460 529 35,000  Level Albuquerque Center
Sun 09:13:11 PM 35.8444 -111.3847 19° North 464 534 35,000  Level Albuquerque Center
Sun 09:13:47 PM 35.9031 -111.3606 18° North 465 535 35,000  Level Denver Center
Sun 09:14:49 PM 36.0506 -111.2989 19° North 467 537 35,000  Level Denver Center
Sun 09:15:50 PM 36.1428 -111.1961 42° Northeast 473 544 35,000 634 Level Denver Center
Sun 09:16:52 PM 36.1825 -111.0456 72° East 465 535 36,300 968 Climbing Denver Center
Sun 09:17:54 PM 36.2464 -110.9125 59° Northeast 460 529 37,000 339 Climbing Denver Center
Sun 09:18:56 PM 36.3175 -110.7833 56° Northeast 457 526 37,000 195 Level Denver Center
Sun 09:19:57 PM 36.3881 -110.6544 56° Northeast 454 522 37,400 976 Climbing Denver Center
Sun 09:20:59 PM 36.4756 -110.4969 55° Northeast 460 529 39,000 1,355 Climbing Denver Center
Sun 09:22:01 PM 36.5336 -110.3547 63° Northeast 465 535 40,200 968 Climbing Denver Center
Sun 09:23:03 PM 36.5700 -110.2069 73° East 456 525 41,000 390 Climbing Denver Center
Sun 09:24:04 PM 36.6069 -110.0542 73° East 458 527 41,000  Level Denver Center
Sun 09:25:06 PM 36.6422 -109.9114 73° East 452 520 41,000  Level Denver Center
Sun 09:26:08 PM 36.6831 -109.7444 73° East 451 519 41,000  Level Denver Center
Sun 09:27:10 PM 36.7169 -109.6028 73° East 446 513 41,000  Level Denver Center
Sun 09:28:11 PM 36.7569 -109.4364 73° East 448 516 41,000  Level Denver Center
Sun 09:29:13 PM 36.7903 -109.2944 74° East 444 511 41,000  Level Denver Center
Sun 09:30:15 PM 36.8306 -109.1281 73° East 446 513 41,000  Level Denver Center
Sun 09:31:16 PM 36.8644 -108.9850 73° East 447 514 41,000  Level Denver Center
Sun 09:32:18 PM 36.8978 -108.8425 74° East 448 516 41,000  Level Denver Center
Sun 09:33:20 PM 36.9364 -108.6753 74° East 448 516 41,000  Level Denver Center
Sun 09:34:22 PM 36.9694 -108.5325 74° East 447 514 41,000  Level Denver Center
Sun 09:35:23 PM 37.0089 -108.3636 74° East 450 518 41,000  Level Denver Center
Sun 09:36:25 PM 37.0411 -108.2192 74° East 450 518 41,000  Level Denver Center
Sun 09:37:27 PM 37.0736 -108.0769 74° East 446 513 41,000  Level Denver Center
Sun 09:38:29 PM 37.1117 -107.9083 74° East 449 517 41,000  Level Denver Center
Sun 09:39:31 PM 37.1436 -107.7653 74° East 446 513 41,000  Level Denver Center
Sun 09:40:32 PM 37.1808 -107.5969 74° East 448 516 41,000  Level Denver Center
Sun 09:41:34 PM 37.2122 -107.4575 74° East 437 503 41,000  Level Denver Center
Sun 09:42:36 PM 37.2489 -107.2914 74° East 441 507 41,000  Level Denver Center
Sun 09:43:38 PM 37.2800 -107.1497 75° East 439 505 41,000  Level Denver Center
Sun 09:44:39 PM 37.3158 -106.9831 75° East 442 509 41,000  Level Denver Center
Sun 09:45:41 PM 37.3469 -106.8408 75° East 442 509 41,000  Level Denver Center
Sun 09:46:43 PM 37.3781 -106.6986 75° East 443 510 41,000  Level Denver Center
Sun 09:47:45 PM 37.4119 -106.5306 76° East 443 510 41,000  Level Denver Center
Sun 09:48:46 PM 37.4717 -106.4031 59° Northeast 442 509 41,000  Level Denver Center
Sun 09:49:48 PM 37.5550 -106.2642 53° Northeast 443 510 41,000  Level Denver Center
Sun 09:51:00 PM 37.6093 -106.0945 75° East  Level Estimated
Sun 09:51:51 PM 37.6961 -106.0122 75° East 441 507 41,000  Level Denver Center
Sun 09:52:53 PM 37.7722 -105.8986 50° Northeast 442 509 41,000  Level Denver Center
Sun 09:53:55 PM 37.8617 -105.7661 49° Northeast 443 510 41,000  Level Denver Center
Sun 09:54:57 PM 37.9389 -105.6517 49° Northeast 444 511 41,000  Level Denver Center
Sun 09:55:58 PM 38.0278 -105.5161 50° Northeast 445 512 41,000  Level Denver Center
Sun 09:57:00 PM 38.0964 -105.3956 54° Northeast 441 507 41,000  Level Denver Center
Sun 09:58:02 PM 38.1764 -105.2539 54° Northeast 440 506 41,000  Level Denver Center
Sun 09:59:03 PM 38.2439 -105.1353 54° Northeast 434 499 41,000  Level Denver Center
Sun 10:00:07 PM 38.3206 -104.9919 56° Northeast 436 502 41,000  Level Denver Center
Sun 10:01:09 PM 38.3767 -104.8706 59° Northeast 432 497 41,000  Level Denver Center
Sun 10:02:10 PM 38.4367 -104.7419 59° Northeast 427 491 41,000  Level Denver Center
Sun 10:03:12 PM 38.4981 -104.6125 59° Northeast 428 493 41,000  Level Denver Center
Sun 10:04:14 PM 38.5656 -104.4572 61° Northeast 420 483 41,000  Level Denver Center
Sun 10:05:16 PM 38.6264 -104.3283 59° Northeast 421 484 41,000  Level Denver Center
Sun 10:06:18 PM 38.6878 -104.2028 58° Northeast 421 484 41,000  Level Denver Center
Sun 10:07:19 PM 38.7564 -104.0642 58° Northeast 420 483 41,000  Level Denver Center
Sun 10:08:21 PM 38.8156 -103.9403 58° Northeast 422 486 41,000  Level Denver Center
Sun 10:09:23 PM 38.8639 -103.8153 64° Northeast 424 488 41,000  Level Denver Center
Sun 10:10:25 PM 38.9283 -103.6528 63° Northeast 426 490 41,000  Level Denver Center
Sun 10:11:27 PM 38.9786 -103.5169 65° Northeast 424 488 41,000  Level Denver Center
Sun 10:12:28 PM 39.0053 -103.3714 77° East 421 484 41,000  Level Denver Center
Sun 10:13:30 PM 39.0325 -103.2256 76° East 421 484 41,000  Level Denver Center
Sun 10:14:32 PM 39.0594 -103.0786 77° East 425 489 41,000  Level Denver Center
Sun 10:15:34 PM 39.0858 -102.9317 77° East 424 488 41,000  Level Denver Center
Sun 10:16:36 PM 39.1186 -102.7542 77° East 426 490 41,000  Level Denver Center
Sun 10:17:37 PM 39.1439 -102.6111 77° East 426 490 41,000  Level Denver Center
Sun 10:18:39 PM 39.1689 -102.4686 77° East 426 490 41,000  Level Denver Center
Sun 10:19:41 PM 39.1986 -102.3025 77° East 427 491 41,000  Level Denver Center
Sun 10:20:43 PM 39.2233 -102.1594 77° East 427 491 41,000  Level Denver Center
Sun 10:21:45 PM 39.2522 -101.9925 77° East 428 493 41,000  Level Denver Center
Sun 10:22:47 PM 39.2767 -101.8497 77° East 428 493 41,000  Level Denver Center
Sun 10:23:48 PM 39.3036 -101.6942 77° East 428 493 41,000  Level Denver Center
Sun 10:24:51 PM 39.3325 -101.5283 77° East 425 489 41,000  Level Denver Center
Sun 10:25:53 PM 39.3550 -101.3872 78° East 422 486 41,000  Level Denver Center
Sun 10:26:54 PM 39.3794 -101.2464 77° East 422 486 41,000  Level Denver Center
Sun 10:27:56 PM 39.4058 -101.0828 78° East 419 482 41,000  Level Denver Center
Sun 10:28:58 PM 39.4281 -100.9428 78° East 417 480 41,000  Level Denver Center
Sun 10:30:00 PM 39.4547 -100.7806 78° East 415 478 41,000  Level Denver Center
Sun 10:31:02 PM 39.4769 -100.6433 78° East 410 472 41,000  Level Denver Center
Sun 10:32:04 PM 39.5022 -100.4839 78° East 407 468 41,000  Level Denver Center
Sun 10:33:06 PM 39.5239 -100.3500 78° East 401 461 41,000  Level Denver Center
Sun 10:34:08 PM 39.5481 -100.1903 79° East 404 465 41,000  Level Denver Center
Sun 10:35:10 PM 39.5692 -100.0564 78° East 399 459 41,000  Level Denver Center
Sun 10:36:12 PM 39.5911 -99.9214 78° East 401 461 41,000  Level Denver Center
Sun 10:37:14 PM 39.6164 -99.7453 79° East 412 474 41,000  Level Denver Center
Sun 10:38:28 PM 39.6431 -99.5728 79° East 407 468 41,000  Level Denver Center
Sun 10:39:30 PM 39.6653 -99.4272 79° East 410 472 41,000  Level Denver Center
Sun 10:40:32 PM 39.6861 -99.2842 79° East 405 466 41,000  Level Denver Center
Sun 10:41:34 PM 39.7072 -99.1394 79° East 407 468 41,000  Level Denver Center
Sun 10:42:36 PM 39.7281 -98.9942 79° East 409 471 41,000  Level Denver Center
Sun 10:43:38 PM 39.7536 -98.8197 79° East 411 473 41,000  Level Denver Center
Sun 10:44:33 PM 39.7700 -98.7050 79° East 411 473 41,000  Level Minneapolis Center
Sun 10:45:34 PM 39.7900 -98.5594 80° East 411 473 41,000  Level Minneapolis Center
Sun 10:46:36 PM 39.8100 -98.4144 80° East 410 472 41,000  Level Minneapolis Center
Sun 10:47:37 PM 39.8350 -98.2400 79° East 410 472 41,000  Level Minneapolis Center
Sun 10:48:38 PM 39.8547 -98.0936 80° East 411 473 41,000  Level Minneapolis Center
Sun 10:49:39 PM 39.8703 -97.9781 80° East 409 471 41,000  Level Minneapolis Center
Sun 10:50:41 PM 39.8933 -97.8056 80° East 405 466 41,000  Level Minneapolis Center
Sun 10:51:42 PM 39.9128 -97.6628 80° East 403 464 41,000  Level Minneapolis Center
Sun 10:52:43 PM 39.9325 -97.5189 80° East 403 464 41,000  Level Minneapolis Center
Sun 10:53:44 PM 39.9503 -97.3750 81° East 404 465 41,000  Level Minneapolis Center
Sun 10:54:45 PM 39.9675 -97.2375 81° East 404 465 41,000  Level Minneapolis Center
Sun 10:55:47 PM 39.9897 -97.0669 80° East 400 460 41,000 -49 Level Minneapolis Center
Sun 10:56:48 PM 40.0083 -96.9217 80° East 405 466 40,900 -541 Descending Minneapolis Center
Sun 10:57:49 PM 40.0272 -96.7756 80° East 408 470 39,900 -806 Descending Minneapolis Center
Sun 10:59:02 PM 40.0444 -96.6286 81° East 411 473 39,100 -367 Descending Minneapolis Center
Sun 11:00:16 PM 40.0661 -96.4542 81° East 409 471 39,000 -44 Descending Minneapolis Center
Sun 11:01:17 PM 40.0875 -96.2811 81° East 405 466 39,000  Level Minneapolis Center
Sun 11:01:47 PM 40.0978 -96.2050 80° East 405 466 39,000  Level Kansas City Center
Sun 11:02:48 PM 40.1156 -96.0497 81° East 409 471 39,000  Level Kansas City Center
Sun 11:03:49 PM 40.1333 -95.9108 80° East 407 468 39,000  Level Kansas City Center
Sun 11:04:20 PM 40.1389 -95.8425 84° East 410 472 39,000  Level Minneapolis Center
Sun 11:05:22 PM 40.1592 -95.6700 81° East 407 468 39,000  Level Minneapolis Center
Sun 11:06:23 PM 40.1761 -95.5267 81° East 404 465 39,000  Level Minneapolis Center
Sun 11:07:24 PM 40.1917 -95.3817 82° East 404 465 39,000  Level Minneapolis Center
Sun 11:08:25 PM 40.2081 -95.2389 81° East 401 461 39,000  Level Minneapolis Center
Sun 11:09:26 PM 40.2228 -95.0936 82° East 403 464 39,000  Level Minneapolis Center
Sun 11:10:27 PM 40.2397 -94.9489 81° East 404 465 39,000  Level Minneapolis Center
Sun 11:11:29 PM 40.2547 -94.8033 82° East 405 466 39,000  Level Minneapolis Center
Sun 11:12:30 PM 40.2711 -94.6569 82° East 407 468 39,000  Level Minneapolis Center
Sun 11:13:31 PM 40.2886 -94.4900 82° East 406 467 39,000  Level Minneapolis Center
Sun 11:14:32 PM 40.3028 -94.3450 83° East 406 467 39,000  Level Minneapolis Center
Sun 11:15:33 PM 40.3181 -94.2003 82° East 405 466 39,000  Level Minneapolis Center
Sun 11:16:34 PM 40.3319 -94.0553 83° East 405 466 39,000  Level Minneapolis Center
Sun 11:17:36 PM 40.3472 -93.9097 82° East 406 467 39,000  Level Minneapolis Center
Sun 11:19:01 PM 40.3669 -93.7042 83° East 408 470 39,000  Level Kansas City Center
Sun 11:20:02 PM 40.3814 -93.5578 83° East 408 470 39,000  Level Kansas City Center
Sun 11:21:03 PM 40.3953 -93.4103 83° East 411 473 39,000  Level Kansas City Center
Sun 11:22:06 PM 40.4122 -93.2322 83° East 413 475 39,000  Level Kansas City Center
Sun 11:23:07 PM 40.4264 -93.0839 83° East 413 475 39,000  Level Kansas City Center
Sun 11:24:06 PM 40.4408 -92.9358 83° East 410 472 39,000  Level Kansas City Center
Sun 11:25:08 PM 40.4542 -92.7922 83° East 412 474 39,000  Level Kansas City Center
Sun 11:26:10 PM 40.4683 -92.6528 82° East 417 480 39,000  Level Kansas City Center
Sun 11:27:10 PM 40.4808 -92.4986 84° East 423 487 39,000  Level Kansas City Center
Sun 11:28:12 PM 40.4942 -92.3256 84° East 418 481 39,000  Level Kansas City Center
Sun 11:29:13 PM 40.5069 -92.1747 84° East 417 480 39,000  Level Kansas City Center
Sun 11:30:14 PM 40.5183 -92.0247 84° East 417 480 39,000  Level Kansas City Center
Sun 11:31:15 PM 40.5478 -91.8775 75° East 421 484 39,000  Level Kansas City Center
Sun 11:32:13 PM 40.5844 -91.7331 71° East 422 486 39,000  Level Kansas City Center
Sun 11:33:20 PM 40.6272 -91.5578 72° East 424 488 39,000  Level Chicago Center
Sun 11:34:20 PM 40.6622 -91.4131 72° East 419 482 39,000  Level Chicago Center
Sun 11:35:21 PM 40.6947 -91.2797 72° East 426 490 39,000  Level Chicago Center
Sun 11:36:22 PM 40.7389 -91.1017 72° East 427 491 39,000  Level Chicago Center
Sun 11:37:23 PM 40.7750 -90.9519 72° East 428 493 39,000  Level Chicago Center
Sun 11:38:23 PM 40.8100 -90.8022 73° East 427 491 39,000  Level Chicago Center
Sun 11:39:24 PM 40.8447 -90.6517 73° East 428 493 39,000  Level Chicago Center
Sun 11:40:25 PM 40.8817 -90.5025 72° East 426 490 39,000  Level Chicago Center
Sun 11:41:26 PM 40.9164 -90.3511 73° East 428 493 39,000  Level Chicago Center
Sun 11:42:26 PM 40.9503 -90.2100 72° East 426 490 39,000  Level Chicago Center
Sun 11:43:27 PM 40.9847 -90.0606 73° East 427 491 39,000  Level Chicago Center
Sun 11:44:28 PM 41.0225 -89.8939 73° East 430 495 39,000  Level Chicago Center
Sun 11:45:29 PM 41.0569 -89.7392 74° East 434 499 39,000  Level Chicago Center
Sun 11:46:29 PM 41.0917 -89.5853 73° East 435 501 39,000  Level Chicago Center
Sun 11:47:30 PM 41.1256 -89.4317 74° East 433 498 39,000  Level Chicago Center
Sun 11:48:31 PM 41.1592 -89.2769 74° East 438 504 39,000  Level Chicago Center
Sun 11:49:31 PM 41.1953 -89.1194 73° East 433 498 39,000  Level Chicago Center
Sun 11:50:32 PM 41.2244 -88.9667 76° East 432 497 39,000  Level Chicago Center
Sun 11:51:33 PM 41.2600 -88.8122 73° East 437 503 39,000  Level Chicago Center
Sun 11:52:33 PM 41.2911 -88.6628 74° East 425 489 39,000  Level Chicago Center
Sun 11:53:34 PM 41.3244 -88.5089 74° East 432 497 39,000  Level Chicago Center
Sun 11:54:35 PM 41.3572 -88.3564 74° East 432 497 39,000  Level Chicago Center
Sun 11:55:35 PM 41.3922 -88.1939 74° East 429 494 39,000  Level Chicago Center
Sun 11:56:36 PM 41.4267 -88.0383 73° East 438 504 39,000  Level Chicago Center
Sun 11:57:37 PM 41.4600 -87.8664 75° East 442 509 39,000  Level Chicago Center
Sun 11:58:37 PM 41.4919 -87.7122 74° East 438 504 39,000  Level Chicago Center
Sun 11:59:38 PM 41.5236 -87.5578 75° East 436 502 39,000  Level Chicago Center
Mon 12:00:38 AM 41.5542 -87.4025 75° East 436 502 39,000  Level Chicago Center
Mon 12:01:39 AM 41.5861 -87.2478 75° East 436 502 39,000  Level Chicago Center
Mon 12:02:40 AM 41.6172 -87.0925 75° East 436 502 39,000  Level Chicago Center
Mon 12:03:41 AM 41.6472 -86.9378 75° East 434 499 39,000 -347 Level Chicago Center
Mon 12:04:41 AM 41.6789 -86.7833 75° East 433 498 38,300 -893 Descending Chicago Center
Mon 12:05:42 AM 41.7139 -86.5994 76° East 437 503 37,200 -992 Descending Chicago Center
Mon 12:06:42 AM 41.7458 -86.4392 75° East 444 511 36,300 -942 Descending Chicago Center
Mon 12:07:43 AM 41.7761 -86.2764 76° East 451 519 35,300 -934 Descending Chicago Center
Mon 12:08:44 AM 41.8078 -86.1131 75° East 452 520 34,400 -1,041 Descending Chicago Center
Mon 12:09:44 AM 41.8400 -85.9494 75° East 452 520 33,200 -1,339 Descending Chicago Center
Mon 12:10:45 AM 41.8717 -85.7892 75° East 447 514 31,700 -1,537 Descending Chicago Center
Mon 12:11:45 AM 41.9025 -85.6303 75° East 437 503 30,100 -1,537 Descending Chicago Center
Mon 12:12:46 AM 41.9325 -85.4744 75° East 428 493 28,600 -1,525 Descending Chicago Center
Mon 12:13:47 AM 41.9614 -85.3225 76° East 419 482 27,000 -1,537 Descending Chicago Center
Mon 12:14:47 AM 41.9875 -85.1725 77° East 411 473 25,500 -1,388 Descending Chicago Center
Mon 12:15:48 AM 42.0106 -85.0469 76° East 405 466 24,200 -1,537 Descending Chicago Center
Mon 12:16:48 AM 42.0403 -84.8775 77° East 391 450 22,400 -1,636 Descending Chicago Center
Mon 12:17:49 AM 42.0567 -84.7419 81° East 373 429 20,900 -1,438 Descending Chicago Center
Mon 12:18:49 AM 42.0719 -84.6067 81° East 367 422 19,500 -1,587 Descending Chicago Center
Mon 12:19:50 AM 42.0872 -84.4764 81° East 358 412 17,700 -1,785 Descending Chicago Center
Mon 12:20:50 AM 42.1031 -84.3486 80° East 349 402 15,900 -1,958 Descending Chicago Center
Mon 12:21:25 AM 42.1114 -84.2697 82° East 343 395 14,600 -1,438 Descending Cleveland Center
Mon 12:22:26 AM 42.1381 -84.1508 73° East 332 382 13,600 -1,339 Descending Cleveland Center
Mon 12:23:26 AM 42.1625 -84.0344 74° East 323 372 11,900 -1,686 Descending Cleveland Center
Mon 12:24:27 AM 42.1886 -83.9211 73° East 315 362 10,200 -1,359 Descending Cleveland Center
Mon 12:25:34 AM 42.2150 -83.8047 73° East 280 322 9,000 -1,370 Descending Cleveland Center
Mon 12:26:34 AM 42.2386 -83.7019 73° East 280 322 7,300 -1,537 Descending Cleveland Center
Mon 12:27:35 AM 42.2600 -83.6019 74° East 282 325 5,900 -1,438 Descending Cleveland Center
Mon 12:28:35 AM 42.2814 -83.5019 74° East 266 306 4,400 -1,190 Descending Cleveland Center
Mon 12:29:36 AM 42.3208 -83.4225 56° Northeast 239 275 3,500 -885 Descending Cleveland Center
Mon 12:31:00 AM 42.2124 -83.3534 90° East  Level Estimated
Mon 12:38:00 AM 42.2124 -83.3534 90° East  Level Estimated
Mon 12:39:00 AM 42.2124 -83.3534 90° East  Level Estimated
Mon 12:40:00 AM 42.2124 -83.3534 90° East  Level Estimated
Mon 12:41:00 AM 42.2124 -83.3534 90° East  Level Estimated
Mon 12:42:00 AM 42.2124 -83.3534 90° East  Level Estimated
Mon 12:43:00 AM 42.2124 -83.3534 90° East  Level Estimated
Mon 12:44:00 AM 42.2124 -83.3534 90° East  Level Estimated
Mon 12:45:00 AM 42.2124 -83.3534 90° East  Level Estimated
Mon 12:46:00 AM 42.2124 -83.3534 90° East  Level Estimated
Mon 12:47:00 AM 42.2124 -83.3534 90° East  Level Estimated

Login

Don't have an account? Register now (free) for customized features, flight alerts, and more!